createdAt,value
2024-02-05T00:01:56.130Z,1.70
2024-02-05T00:04:25.257Z,1.20
2024-02-05T00:06:53.937Z,1.30
2024-02-05T00:09:22.607Z,1.40
2024-02-05T00:11:51.231Z,1.10
2024-02-05T00:14:20.756Z,1.30
2024-02-05T00:16:49.576Z,1.10
2024-02-05T00:19:18.724Z,1.30
2024-02-05T00:21:47.364Z,1.20
2024-02-05T00:24:15.906Z,1.20
2024-02-05T00:26:44.436Z,1.20
2024-02-05T00:29:13.967Z,1.40
2024-02-05T00:31:42.702Z,1.10
2024-02-05T00:34:11.402Z,1.00
2024-02-05T00:36:40.319Z,1.50
2024-02-05T00:39:11.589Z,1.80
2024-02-05T00:41:40.349Z,1.00
2024-02-05T00:44:09.327Z,1.10
2024-02-05T00:46:38.137Z,1.40
2024-02-05T00:49:07.647Z,1.00
2024-02-05T00:51:36.319Z,1.20
2024-02-05T00:54:05.848Z,0.80
2024-02-05T00:56:35.432Z,1.50
2024-02-05T00:59:06.411Z,1.10
2024-02-05T01:01:37.844Z,1.00
2024-02-05T01:04:06.655Z,1.10
2024-02-05T01:06:35.390Z,1.60
2024-02-05T01:09:10.481Z,1.20
2024-02-05T01:11:39.093Z,1.40
2024-02-05T01:14:07.680Z,1.30
2024-02-05T01:16:36.171Z,1.10
2024-02-05T01:19:04.912Z,1.80
2024-02-05T01:21:33.608Z,0.90
2024-02-05T01:24:03.924Z,0.90
2024-02-05T01:26:32.458Z,1.00
2024-02-05T01:29:01.072Z,1.10
2024-02-05T01:31:29.714Z,1.00
2024-02-05T01:33:58.494Z,1.50
2024-02-05T01:36:27.214Z,1.10
2024-02-05T01:38:56.772Z,1.20
2024-02-05T01:41:25.773Z,1.00
2024-02-05T01:43:55.174Z,2.40
2024-02-05T01:46:24.747Z,1.30
2024-02-05T01:49:00.989Z,1.00
2024-02-05T01:51:33.656Z,1.20
2024-02-05T01:54:03.033Z,1.00
2024-02-05T01:56:34.684Z,1.10
2024-02-05T01:59:04.549Z,1.00
2024-02-05T02:01:36.495Z,1.10
2024-02-05T02:04:07.517Z,1.10
2024-02-05T02:06:38.278Z,0.90
2024-02-05T02:09:12.404Z,1.50
2024-02-05T02:11:44.328Z,1.00
2024-02-05T02:14:13.037Z,1.00
2024-02-05T02:16:41.671Z,0.90
2024-02-05T02:19:28.435Z,1.30
2024-02-05T02:22:08.277Z,1.90
2024-02-05T02:24:37.636Z,1.40
2024-02-05T02:27:10.343Z,1.10
2024-02-05T02:29:39.022Z,1.10
2024-02-05T02:32:40.532Z,1.50
2024-02-05T02:35:15.205Z,1.10
2024-02-05T02:37:52.668Z,1.20
2024-02-05T02:40:23.242Z,1.20
2024-02-05T02:43:00.344Z,1.10
2024-02-05T02:45:31.474Z,1.50
2024-02-05T02:48:01.290Z,1.20
2024-02-05T02:50:30.077Z,1.20
2024-02-05T02:52:58.867Z,1.20
2024-02-05T02:55:27.413Z,1.20
2024-02-05T02:57:56.728Z,1.20
2024-02-05T03:00:25.321Z,1.30
2024-02-05T03:02:56.170Z,1.10
2024-02-05T03:05:24.932Z,0.90
2024-02-05T03:07:53.510Z,2.80
2024-02-05T03:10:22.226Z,1.30
2024-02-05T03:12:50.747Z,1.00
2024-02-05T03:15:21.019Z,1.10
2024-02-05T03:17:49.680Z,0.90
2024-02-05T03:20:43.819Z,1.20
2024-02-05T03:23:13.140Z,1.50
2024-02-05T03:25:42.471Z,0.80
2024-02-05T03:28:11.073Z,1.00
2024-02-05T03:30:41.131Z,1.30
2024-02-05T03:33:10.004Z,2.10
2024-02-05T03:35:39.155Z,1.30
2024-02-05T03:38:07.736Z,1.50
2024-02-05T03:40:37.225Z,3.70
2024-02-05T03:43:05.752Z,1.10
2024-02-05T03:45:34.318Z,1.10
2024-02-05T03:48:02.932Z,1.20
2024-02-05T03:50:33.000Z,1.30
2024-02-05T03:53:01.880Z,1.10
2024-02-05T03:55:30.461Z,1.40
2024-02-05T03:58:04.793Z,1.60
2024-02-05T04:00:33.485Z,1.30
2024-02-05T04:03:02.410Z,1.20
2024-02-05T04:05:33.406Z,1.90
2024-02-05T04:08:02.375Z,1.80
2024-02-05T04:10:31.380Z,2.30
2024-02-05T04:13:00.245Z,1.10
2024-02-05T04:15:31.100Z,2.50
2024-02-05T04:18:02.930Z,1.20
2024-02-05T04:20:31.620Z,0.90
2024-02-05T04:23:01.303Z,1.00
2024-02-05T04:25:31.125Z,1.20
2024-02-05T04:28:03.796Z,2.60
2024-02-05T04:30:38.582Z,1.10
2024-02-05T04:33:08.892Z,1.70
2024-02-05T04:35:40.386Z,1.10
2024-02-05T04:38:09.995Z,1.00
2024-02-05T04:40:38.730Z,1.40
2024-02-05T04:43:07.362Z,0.90
2024-02-05T04:45:35.993Z,1.20
2024-02-05T04:48:04.815Z,1.10
2024-02-05T04:50:33.541Z,1.00
2024-02-05T04:53:02.207Z,0.70
2024-02-05T04:55:31.001Z,1.10
2024-02-05T04:58:00.215Z,1.00
2024-02-05T05:00:28.963Z,0.70
2024-02-05T05:02:57.488Z,0.70
2024-02-05T05:05:26.262Z,0.80
2024-02-05T05:07:54.890Z,1.20
2024-02-05T05:10:23.382Z,1.20
2024-02-05T05:12:51.954Z,1.80
2024-02-05T05:15:20.469Z,1.20
2024-02-05T05:17:49.965Z,1.10
2024-02-05T05:20:18.692Z,2.20
2024-02-05T05:22:47.374Z,1.00
2024-02-05T05:25:16.044Z,1.50
2024-02-05T05:27:44.714Z,1.50
2024-02-05T05:30:13.689Z,1.20
2024-02-05T05:32:42.290Z,1.60
2024-02-05T05:35:12.436Z,2.30
2024-02-05T05:37:44.819Z,2.00
2024-02-05T05:40:13.781Z,2.10
2024-02-05T05:42:42.718Z,1.60
2024-02-05T05:45:11.795Z,1.70
2024-02-05T05:47:41.011Z,1.60
2024-02-05T05:50:10.422Z,2.00
2024-02-05T05:52:39.104Z,1.20
2024-02-05T05:55:09.208Z,2.00
2024-02-05T05:57:37.909Z,1.90
2024-02-05T06:00:07.332Z,2.30
2024-02-05T06:02:35.933Z,1.80
2024-02-05T06:05:10.464Z,2.00
2024-02-05T06:07:41.586Z,3.10
2024-02-05T06:10:11.289Z,1.40
2024-02-05T06:12:41.887Z,1.40
2024-02-05T06:15:11.459Z,1.60
2024-02-05T06:17:40.643Z,1.50
2024-02-05T06:20:11.933Z,2.20
2024-02-05T06:22:43.025Z,1.50
2024-02-05T06:25:13.339Z,1.60
2024-02-05T06:27:42.660Z,1.80
2024-02-05T06:30:12.545Z,1.70
2024-02-05T06:32:41.342Z,1.20
2024-02-05T06:35:10.384Z,1.20
2024-02-05T06:37:39.312Z,1.20
2024-02-05T06:40:09.968Z,1.60
2024-02-05T06:42:38.711Z,1.60
2024-02-05T06:45:11.710Z,1.90
2024-02-05T06:47:40.548Z,2.50
2024-02-05T06:50:11.769Z,1.70
2024-02-05T06:52:40.270Z,1.30
2024-02-05T06:55:09.256Z,1.70
2024-02-05T06:57:37.977Z,2.80
2024-02-05T07:00:09.866Z,1.50
2024-02-05T07:02:38.407Z,2.00
2024-02-05T07:05:08.122Z,3.10
2024-02-05T07:07:36.854Z,4.30
2024-02-05T07:10:06.669Z,3.10
2024-02-05T07:12:39.586Z,4.50
2024-02-05T07:15:09.294Z,5.30
2024-02-05T07:17:38.076Z,4.30
2024-02-05T07:20:07.552Z,5.80
2024-02-05T07:22:37.248Z,3.40
2024-02-05T07:25:07.166Z,1.00
2024-02-05T07:27:36.925Z,2.50
2024-02-05T07:30:07.006Z,1.30
2024-02-05T07:32:38.080Z,1.00
2024-02-05T07:35:07.624Z,4.10
2024-02-05T07:37:37.890Z,1.50
2024-02-05T07:40:07.681Z,2.50
2024-02-05T07:42:37.457Z,1.90
2024-02-05T07:45:06.484Z,3.10
2024-02-05T07:47:35.051Z,2.00
2024-02-05T07:50:05.219Z,1.80
2024-02-05T07:52:34.079Z,1.50
2024-02-05T07:55:08.217Z,1.70
2024-02-05T07:57:38.259Z,1.30
2024-02-05T08:00:07.417Z,2.50
2024-02-05T08:02:42.150Z,1.70
2024-02-05T08:05:11.214Z,1.40
2024-02-05T08:07:40.249Z,2.00
2024-02-05T08:10:09.465Z,3.40
2024-02-05T08:12:38.087Z,2.00
2024-02-05T08:15:07.061Z,2.40
2024-02-05T08:17:35.701Z,1.60
2024-02-05T08:20:05.016Z,2.60
2024-02-05T08:22:34.538Z,3.80
2024-02-05T08:25:03.230Z,2.10
2024-02-05T08:27:31.972Z,2.90
2024-02-05T08:30:00.790Z,2.20
2024-02-05T08:32:30.386Z,2.30
2024-02-05T08:34:58.982Z,2.50
2024-02-05T08:37:32.022Z,2.60
2024-02-05T08:40:00.959Z,6.60
2024-02-05T08:42:33.227Z,3.10
2024-02-05T08:45:04.880Z,2.90
2024-02-05T08:47:34.620Z,3.50
2024-02-05T08:50:03.527Z,3.10
2024-02-05T08:52:32.737Z,2.40
2024-02-05T08:55:01.414Z,3.50
2024-02-05T08:57:30.129Z,4.60
2024-02-05T08:59:58.838Z,1.90
2024-02-05T09:02:28.400Z,2.10
2024-02-05T09:04:57.306Z,1.70
2024-02-05T09:09:03.405Z,1.70
2024-02-05T09:11:34.713Z,1.60
2024-02-05T09:16:33.417Z,1.80
2024-02-05T09:19:03.114Z,1.40
2024-02-05T09:21:34.194Z,2.00
2024-02-05T09:24:02.714Z,2.80
2024-02-05T09:26:31.636Z,2.40
2024-02-05T09:29:00.481Z,3.50
2024-02-05T09:31:29.197Z,3.60
2024-02-05T09:33:57.784Z,2.70
2024-02-05T09:36:26.325Z,3.50
2024-02-05T09:38:55.095Z,3.30
2024-02-05T09:41:33.784Z,1.40
2024-02-05T09:44:04.740Z,2.90
2024-02-05T09:46:35.941Z,2.90
2024-02-05T09:49:06.719Z,2.60
2024-02-05T09:51:39.191Z,3.60
2024-02-05T09:54:17.916Z,3.40
2024-02-05T09:56:54.655Z,3.90
2024-02-05T09:59:23.335Z,2.80
2024-02-05T10:01:54.465Z,2.70
2024-02-05T10:04:26.387Z,4.30
2024-02-05T10:09:26.293Z,2.50
2024-02-05T10:11:58.926Z,1.80
2024-02-05T10:17:01.115Z,3.00
2024-02-05T10:19:32.236Z,1.50
2024-02-05T10:22:01.111Z,2.50
2024-02-05T10:24:29.835Z,2.50
2024-02-05T10:26:59.980Z,1.90
2024-02-05T10:29:28.669Z,2.00
2024-02-05T10:32:00.458Z,2.80
2024-02-05T10:34:29.389Z,2.50
2024-02-05T10:37:13.124Z,2.50
2024-02-05T10:39:41.997Z,3.20
2024-02-05T10:42:10.634Z,2.80
2024-02-05T10:44:42.066Z,2.80
2024-02-05T10:47:12.201Z,2.50
2024-02-05T10:49:41.298Z,2.90
2024-02-05T10:52:17.459Z,3.50
2024-02-05T10:54:48.048Z,2.80
2024-02-05T10:57:20.236Z,3.20
2024-02-05T10:59:48.955Z,2.80
2024-02-05T11:02:26.557Z,3.30
2024-02-05T11:04:57.862Z,2.50
2024-02-05T11:07:31.945Z,4.10
2024-02-05T11:10:04.412Z,2.60
2024-02-05T11:12:35.203Z,2.90
2024-02-05T11:15:10.445Z,2.80
2024-02-05T11:17:39.960Z,4.70
2024-02-05T11:20:13.306Z,2.90
2024-02-05T11:22:44.780Z,2.20
2024-02-05T11:25:15.631Z,2.20
2024-02-05T11:27:44.856Z,2.80
2024-02-05T11:30:16.765Z,3.50
2024-02-05T11:32:45.492Z,3.00
2024-02-05T11:35:15.483Z,2.70
2024-02-05T11:37:46.089Z,2.60
2024-02-05T11:40:23.530Z,2.40
2024-02-05T11:43:06.518Z,3.30
2024-02-05T11:45:36.544Z,3.30
2024-02-05T11:48:08.076Z,3.60
2024-02-05T11:50:37.219Z,5.70
2024-02-05T11:53:05.843Z,2.70
2024-02-05T11:55:37.794Z,1.80
2024-02-05T11:58:06.596Z,1.50
2024-02-05T12:00:35.479Z,2.10
2024-02-05T12:03:06.146Z,1.90
2024-02-05T12:08:05.423Z,2.60
2024-02-05T12:10:34.216Z,3.70
2024-02-05T12:13:04.230Z,2.30
2024-02-05T12:15:35.137Z,1.80
2024-02-05T12:18:05.806Z,3.50
2024-02-05T12:20:34.539Z,2.10
2024-02-05T12:23:06.291Z,1.70
2024-02-05T12:25:41.973Z,2.20
2024-02-05T12:28:16.253Z,2.70
2024-02-05T12:30:45.370Z,2.20
2024-02-05T12:33:18.249Z,3.80
2024-02-05T12:35:57.633Z,2.80
2024-02-05T12:38:29.173Z,3.00
2024-02-05T12:41:00.487Z,3.40
2024-02-05T12:43:32.907Z,2.70
2024-02-05T12:46:03.211Z,2.10
2024-02-05T12:48:32.262Z,2.20
2024-02-05T12:51:00.886Z,3.60
2024-02-05T12:53:29.694Z,3.90
2024-02-05T12:55:59.782Z,6.10
2024-02-05T12:58:29.582Z,2.70
2024-02-05T13:00:59.350Z,1.90
2024-02-05T13:03:37.040Z,2.80
2024-02-05T13:06:06.500Z,2.70
2024-02-05T13:08:35.251Z,2.00
2024-02-05T13:11:06.612Z,3.20
2024-02-05T13:13:35.498Z,4.00
2024-02-05T13:16:04.492Z,3.00
2024-02-05T13:18:33.251Z,2.10
2024-02-05T13:21:01.871Z,4.30
2024-02-05T13:23:30.664Z,2.30
2024-02-05T13:25:59.566Z,2.40
2024-02-05T13:28:30.078Z,2.90
2024-02-05T13:31:01.594Z,3.30
2024-02-05T13:33:30.478Z,1.70
2024-02-05T13:35:59.181Z,1.30
2024-02-05T13:38:29.407Z,1.60
2024-02-05T13:40:58.446Z,2.60
2024-02-05T13:43:28.040Z,2.90
2024-02-05T13:45:56.725Z,1.90
2024-02-05T13:48:26.890Z,2.10
2024-02-05T13:50:55.662Z,3.00
2024-02-05T13:53:24.330Z,1.20
2024-02-05T13:55:53.559Z,2.90
2024-02-05T13:58:22.139Z,4.60
2024-02-05T14:00:51.054Z,2.50
2024-02-05T14:03:22.825Z,1.30
2024-02-05T14:05:51.732Z,1.90
2024-02-05T14:08:20.427Z,1.80
2024-02-05T14:10:51.046Z,3.60
2024-02-05T14:13:19.963Z,1.50
2024-02-05T14:15:49.593Z,2.20
2024-02-05T14:18:19.373Z,2.00
2024-02-05T14:20:48.269Z,1.30
2024-02-05T14:23:16.892Z,1.80
2024-02-05T14:25:45.587Z,2.00
2024-02-05T14:28:14.174Z,2.00
2024-02-05T14:30:43.122Z,1.50
2024-02-05T14:33:11.946Z,2.90
2024-02-05T14:35:40.549Z,1.90
2024-02-05T14:38:09.217Z,1.80
2024-02-05T14:40:38.103Z,1.90
2024-02-05T14:43:09.909Z,1.70
2024-02-05T14:45:38.812Z,1.80
2024-02-05T14:48:08.211Z,2.10
2024-02-05T14:50:36.894Z,1.60
2024-02-05T14:53:06.090Z,1.20
2024-02-05T14:55:34.939Z,2.30
2024-02-05T14:58:06.051Z,1.80
2024-02-05T15:00:34.772Z,1.30
2024-02-05T15:03:04.203Z,1.10
2024-02-05T15:05:33.553Z,1.00
2024-02-05T15:08:02.449Z,1.70
2024-02-05T15:10:31.187Z,1.70
2024-02-05T15:13:02.823Z,1.10
2024-02-05T15:15:32.104Z,2.70
2024-02-05T15:18:01.004Z,1.80
2024-02-05T15:20:29.836Z,1.70
2024-02-05T15:23:01.077Z,1.20
2024-02-05T15:25:29.961Z,2.50
2024-02-05T15:27:58.576Z,2.30
2024-02-05T15:30:27.131Z,1.50
2024-02-05T15:32:55.784Z,1.60
2024-02-05T15:35:25.890Z,2.10
2024-02-05T15:37:54.789Z,1.40
2024-02-05T15:40:23.802Z,2.60
2024-02-05T15:42:52.459Z,3.10
2024-02-05T15:45:22.471Z,1.80
2024-02-05T15:47:51.087Z,2.20
2024-02-05T15:50:19.654Z,2.50
2024-02-05T15:52:48.265Z,2.10
2024-02-05T15:55:19.125Z,1.40
2024-02-05T15:57:48.179Z,1.50
2024-02-05T16:00:17.915Z,1.00
2024-02-05T16:02:46.439Z,2.00
2024-02-05T16:05:15.756Z,2.30
2024-02-05T16:07:44.401Z,2.30
2024-02-05T16:10:12.971Z,1.30
2024-02-05T16:12:41.633Z,3.50
2024-02-05T16:15:10.865Z,2.40
2024-02-05T16:17:39.360Z,3.50
2024-02-05T16:20:15.027Z,1.40
2024-02-05T16:22:53.040Z,2.00
2024-02-05T16:25:23.705Z,3.30
2024-02-05T16:27:53.007Z,2.90
2024-02-05T16:30:21.780Z,1.50
2024-02-05T16:32:50.499Z,2.00
2024-02-05T16:35:19.906Z,5.30
2024-02-05T16:37:48.914Z,2.30
2024-02-05T16:40:17.984Z,2.00
2024-02-05T16:42:46.725Z,2.20
2024-02-05T16:45:15.551Z,4.30
2024-02-05T16:47:47.159Z,3.70
2024-02-05T16:50:16.170Z,2.30
2024-02-05T16:52:45.214Z,1.40
2024-02-05T16:55:14.533Z,3.40
2024-02-05T16:57:43.878Z,1.30
2024-02-05T17:00:14.184Z,1.90
2024-02-05T17:02:42.867Z,2.10
2024-02-05T17:05:11.838Z,4.40
2024-02-05T17:07:45.981Z,2.00
2024-02-05T17:10:15.879Z,1.40
2024-02-05T17:12:44.529Z,2.40
2024-02-05T17:15:14.059Z,1.80
2024-02-05T17:17:45.981Z,2.20
2024-02-05T17:20:15.546Z,6.30
2024-02-05T17:22:44.760Z,3.20
2024-02-05T17:25:13.445Z,2.50
2024-02-05T17:27:43.126Z,4.00
2024-02-05T17:30:13.182Z,2.70
2024-02-05T17:32:42.140Z,2.80
2024-02-05T17:35:11.185Z,3.40
2024-02-05T17:37:39.955Z,1.50
2024-02-05T17:40:09.725Z,2.10
2024-02-05T17:42:38.703Z,2.00
2024-02-05T17:45:10.956Z,1.90
2024-02-05T17:47:44.069Z,1.70
2024-02-05T17:50:13.160Z,1.70
2024-02-05T17:52:46.919Z,2.20
2024-02-05T17:55:20.106Z,1.70
2024-02-05T17:57:49.978Z,2.90
2024-02-05T18:00:23.419Z,2.60
2024-02-05T18:02:55.081Z,1.70
2024-02-05T18:05:24.340Z,3.10
2024-02-05T18:07:53.287Z,2.20
2024-02-05T18:10:22.048Z,2.50
2024-02-05T18:12:50.885Z,3.50
2024-02-05T18:15:19.963Z,2.70
2024-02-05T18:17:48.845Z,1.80
2024-02-05T18:20:17.579Z,2.10
2024-02-05T18:22:46.230Z,2.10
2024-02-05T18:25:14.921Z,1.70
2024-02-05T18:27:43.524Z,2.60
2024-02-05T18:30:13.040Z,2.10
2024-02-05T18:32:41.882Z,2.80
2024-02-05T18:35:13.020Z,1.50
2024-02-05T18:37:42.416Z,2.60
2024-02-05T18:40:11.804Z,2.50
2024-02-05T18:42:40.761Z,2.70
2024-02-05T18:45:14.945Z,2.90
2024-02-05T18:47:46.079Z,1.70
2024-02-05T18:50:15.378Z,2.80
2024-02-05T18:52:44.382Z,2.30
2024-02-05T18:55:13.187Z,3.00
2024-02-05T18:57:41.923Z,2.20
2024-02-05T19:00:11.815Z,2.50
2024-02-05T19:02:40.470Z,1.90
2024-02-05T19:05:13.190Z,2.10
2024-02-05T19:07:47.237Z,2.80
2024-02-05T19:10:18.742Z,3.80
2024-02-05T19:12:53.419Z,3.20
2024-02-05T19:15:22.388Z,2.40
2024-02-05T19:17:51.485Z,3.80
2024-02-05T19:20:20.484Z,1.90
2024-02-05T19:22:49.267Z,2.00
2024-02-05T19:25:18.537Z,2.10
2024-02-05T19:27:47.224Z,3.30
2024-02-05T19:30:18.481Z,1.70
2024-02-05T19:32:47.382Z,2.30
2024-02-05T19:35:16.262Z,2.60
2024-02-05T19:37:46.023Z,4.20
2024-02-05T19:40:14.877Z,2.40
2024-02-05T19:42:45.757Z,4.70
2024-02-05T19:45:16.178Z,3.50
2024-02-05T19:47:44.957Z,5.70
2024-02-05T19:50:15.882Z,2.10
2024-02-05T19:52:44.631Z,2.20
2024-02-05T19:55:14.952Z,3.10
2024-02-05T19:57:43.892Z,3.60
2024-02-05T20:00:13.861Z,2.90
2024-02-05T20:02:44.256Z,3.50
2024-02-05T20:05:13.623Z,2.80
2024-02-05T20:07:44.080Z,2.00
2024-02-05T20:10:14.134Z,3.10
2024-02-05T20:12:43.636Z,4.40
2024-02-05T20:15:12.132Z,5.50
2024-02-05T20:17:42.127Z,4.10
2024-02-05T20:20:11.650Z,5.00
2024-02-05T20:22:41.654Z,3.50
2024-02-05T20:25:10.617Z,2.70
2024-02-05T20:27:44.659Z,3.00
2024-02-05T20:30:13.511Z,3.40
2024-02-05T20:32:43.855Z,6.50
2024-02-05T20:35:15.293Z,3.80
2024-02-05T20:37:44.326Z,3.70
2024-02-05T20:40:14.337Z,3.40
2024-02-05T20:42:44.923Z,3.90
2024-02-05T20:45:13.660Z,4.90
2024-02-05T20:47:45.073Z,5.00
2024-02-05T20:50:14.024Z,4.30
2024-02-05T20:52:42.819Z,3.10
2024-02-05T20:55:13.830Z,3.20
2024-02-05T20:57:42.931Z,4.40
2024-02-05T21:00:14.280Z,4.00
2024-02-05T21:02:46.293Z,3.10
2024-02-05T21:05:15.155Z,5.00
2024-02-05T21:07:44.135Z,6.90
2024-02-05T21:10:12.866Z,5.10
2024-02-05T21:12:42.484Z,4.40
2024-02-05T21:15:11.525Z,3.60
2024-02-05T21:17:40.704Z,4.50
2024-02-05T21:20:09.763Z,4.90
2024-02-05T21:22:38.525Z,8.40
2024-02-05T21:25:07.514Z,4.60
2024-02-05T21:27:36.125Z,4.40
2024-02-05T21:30:05.139Z,4.40
2024-02-05T21:32:33.701Z,3.00
2024-02-05T21:35:02.864Z,6.80
2024-02-05T21:37:31.748Z,6.20
2024-02-05T21:40:03.405Z,4.80
2024-02-05T21:42:32.198Z,5.10
2024-02-05T21:48:25.859Z,5.40
2024-02-05T21:50:54.736Z,5.10
2024-02-05T21:53:23.336Z,6.20
2024-02-05T21:55:51.966Z,4.20
2024-02-05T21:58:20.591Z,3.70
2024-02-05T22:00:49.386Z,5.60
2024-02-05T22:03:18.141Z,4.90
2024-02-05T22:05:46.688Z,5.00
2024-02-05T22:08:15.198Z,6.90
2024-02-05T22:10:43.895Z,2.90
2024-02-05T22:13:15.417Z,6.10
2024-02-05T22:15:44.114Z,6.10
2024-02-05T22:18:12.889Z,5.80
2024-02-05T22:20:41.756Z,5.30
2024-02-05T22:23:13.466Z,5.20
2024-02-05T22:25:42.029Z,5.90
2024-02-05T22:28:11.839Z,7.90
2024-02-05T22:30:40.376Z,6.20
2024-02-05T22:33:09.092Z,4.20
2024-02-05T22:35:37.813Z,4.30
2024-02-05T22:38:06.472Z,7.30
2024-02-05T22:40:35.342Z,4.70
2024-02-05T22:43:08.544Z,4.40
2024-02-05T22:45:37.298Z,5.70
2024-02-05T22:48:06.423Z,7.10
2024-02-05T22:50:37.671Z,4.10
2024-02-05T22:53:06.290Z,5.90
2024-02-05T22:55:37.296Z,5.10
2024-02-05T22:58:06.362Z,5.00
2024-02-05T23:00:35.229Z,5.30
2024-02-05T23:03:04.253Z,6.60
2024-02-05T23:05:33.003Z,4.90
2024-02-05T23:08:01.978Z,4.60
2024-02-05T23:10:30.740Z,6.10
2024-02-05T23:12:59.364Z,4.70
2024-02-05T23:15:28.058Z,6.70
2024-02-05T23:18:02.873Z,4.70
2024-02-05T23:20:31.981Z,8.10
2024-02-05T23:23:07.016Z,6.50
2024-02-05T23:25:38.843Z,4.10
2024-02-05T23:28:07.804Z,8.40
2024-02-05T23:30:39.260Z,3.80
2024-02-05T23:33:08.132Z,4.10
2024-02-05T23:35:39.886Z,7.40
2024-02-05T23:38:08.893Z,4.40
2024-02-05T23:40:37.651Z,4.60
2024-02-05T23:43:06.367Z,4.40
2024-02-05T23:45:37.636Z,6.90
2024-02-05T23:48:07.033Z,6.70
2024-02-05T23:50:36.240Z,5.50
2024-02-05T23:53:05.132Z,5.70
2024-02-05T23:55:36.322Z,4.30
2024-02-05T23:58:05.252Z,6.50
